Terminal Aerodrome Forecast
Issued by NWS

Current Version | Previous Version | Text Only | Print | Product List | Glossary Off
Versions: 1 2 3 4 5 6 7 8 9 10 11 12 13 14 15 16 17 18 19 20 21 22 23 24 25

000
FTUS41 KILN 281745
TAFLUK
TAF
KLUK 281745Z 2818/2918 02004KT P6SM SCT040 BKN120
     FM281900 VRB04KT P6SM VCTS SCT040CB BKN250
     FM290000 VRB03KT P6SM SCT130 BKN250
     FM290600 00000KT 4SM BR SCT130 BKN250
      TEMPO 2909/2912 2SM BR
     FM291200 VRB04KT P6SM SCT040=

USA.gov is the U.S. government's official web portal to all federal, state and local government web resources and services.